createdAt,value
2019-04-20T00:00:42.941Z,59.6963
2019-04-20T00:01:45.310Z,59.4217
2019-04-20T00:02:53.209Z,59.5987
2019-04-20T00:03:56.356Z,60.5737
2019-04-20T00:04:59.297Z,60.5615
2019-04-20T00:06:03.425Z,61.5228
2019-04-20T00:07:06.258Z,61.8479
2019-04-20T00:08:19.227Z,62.5879
2019-04-20T00:09:24.020Z,62.9038
2019-04-20T00:10:27.365Z,63.1617
2019-04-20T00:11:45.886Z,62.8550
2019-04-20T00:12:53.616Z,62.8031
2019-04-20T00:13:55.210Z,62.8672
2019-04-20T00:14:56.499Z,63.3295
2019-04-20T00:15:58.305Z,62.2171
2019-04-20T00:17:01.290Z,61.9471
2019-04-20T00:18:06.694Z,62.1271
2019-04-20T00:19:15.293Z,62.4613
2019-04-20T00:20:25.956Z,61.9654
2019-04-20T00:21:27.293Z,61.4176
2019-04-20T00:22:38.217Z,61.4298
2019-04-20T00:23:43.071Z,61.4359
2019-04-20T00:24:49.649Z,61.7380
2019-04-20T00:26:05.678Z,61.5183
2019-04-20T00:27:28.464Z,61.0925
2019-04-20T00:28:31.607Z,60.9537
2019-04-20T00:29:36.696Z,60.8804
2019-04-20T00:30:48.039Z,60.2457
2019-04-20T00:31:45.945Z,59.6918
2019-04-20T00:32:55.537Z,61.0880
2019-04-20T00:33:59.359Z,60.7126
2019-04-20T00:34:58.302Z,60.6058
2019-04-20T00:36:01.284Z,60.7172
2019-04-20T00:37:05.348Z,61.4755
2019-04-20T00:38:10.293Z,61.6876
2019-04-20T00:39:15.114Z,61.8235
2019-04-20T00:40:21.280Z,61.2009
2019-04-20T00:41:25.720Z,62.3545
2019-04-20T00:42:36.687Z,62.2187
2019-04-20T00:43:39.102Z,62.4842
2019-04-20T00:44:49.593Z,62.4292
2019-04-20T00:46:02.000Z,63.7140
2019-04-20T00:47:14.222Z,63.5920
2019-04-20T00:48:22.669Z,63.9017
2019-04-20T00:49:30.622Z,64.3137
2019-04-20T00:50:40.404Z,64.4236
2019-04-20T00:51:51.148Z,64.3275
2019-04-20T00:52:54.214Z,64.4480
2019-04-20T00:53:51.861Z,64.5289
2019-04-20T00:54:56.273Z,64.9958
2019-04-20T00:55:59.321Z,64.1917
2019-04-20T00:57:13.492Z,64.0681
2019-04-20T00:58:19.308Z,64.2863
2019-04-20T00:59:32.333Z,65.0385
2019-04-20T01:00:40.733Z,65.7511
2019-04-20T01:01:52.348Z,65.1942
2019-04-20T01:02:55.526Z,65.8671
2019-04-20T01:04:10.733Z,66.0761
2019-04-20T01:06:24.813Z,65.2445
2019-04-20T01:07:29.085Z,65.4185
2019-04-20T01:08:23.355Z,65.2934
2019-04-20T01:09:26.523Z,64.9836
2019-04-20T01:10:37.205Z,64.9180
2019-04-20T01:11:42.250Z,64.6479
2019-04-20T01:12:45.847Z,65.0141
2019-04-20T01:13:55.388Z,65.2628
2019-04-20T01:15:02.743Z,64.7456
2019-04-20T01:16:19.491Z,65.0187
2019-04-20T01:17:14.310Z,65.1255
2019-04-20T01:18:17.303Z,65.0614
2019-04-20T01:19:20.570Z,65.2750
2019-04-20T01:20:26.551Z,65.9159
2019-04-20T01:21:33.430Z,66.2058
2019-04-20T01:22:44.637Z,65.3132
2019-04-20T01:23:52.639Z,65.5329
2019-04-20T01:24:54.611Z,65.6245
2019-04-20T01:26:03.958Z,65.8900
2019-04-20T01:27:16.752Z,65.9998
2019-04-20T01:28:35.461Z,65.9571
2019-04-20T01:29:32.381Z,65.2659
2019-04-20T01:30:35.964Z,64.7044
2019-04-20T01:31:52.703Z,65.2293
2019-04-20T01:33:00.764Z,65.6886
2019-04-20T01:34:03.046Z,65.3727
2019-04-20T01:35:14.728Z,65.9266
2019-04-20T01:36:34.960Z,65.7053
2019-04-20T01:37:32.792Z,65.7481
2019-04-20T01:38:45.040Z,65.7740
2019-04-20T01:39:43.109Z,66.5263
2019-04-20T01:40:44.428Z,66.4714
2019-04-20T01:41:47.690Z,66.7460
2019-04-20T01:42:51.202Z,66.8330
2019-04-20T01:43:54.453Z,66.9978
2019-04-20T01:44:58.708Z,67.1626
2019-04-20T01:46:11.314Z,67.5425
2019-04-20T01:47:12.068Z,68.4443
2019-04-20T01:48:24.959Z,67.8065
2019-04-20T01:49:28.638Z,68.3940
2019-04-20T01:50:35.345Z,68.8426
2019-04-20T01:51:53.813Z,68.3299
2019-04-20T01:52:58.263Z,68.1315
2019-04-20T01:54:12.018Z,68.7587
2019-04-20T01:55:24.851Z,68.8045
2019-04-20T01:56:30.249Z,68.2567
2019-04-20T01:57:25.977Z,68.3513
2019-04-20T01:58:50.592Z,69.2393
2019-04-20T01:59:49.338Z,69.5644
2019-04-20T02:00:45.947Z,68.9967
2019-04-20T02:01:55.757Z,69.0623
2019-04-20T02:03:01.942Z,68.6534
2019-04-20T02:04:07.330Z,68.6137
2019-04-20T02:05:20.588Z,68.7221
2019-04-20T02:06:25.071Z,68.3879
2019-04-20T02:07:36.703Z,68.3879
2019-04-20T02:08:38.310Z,68.3299
2019-04-20T02:09:47.483Z,68.5939
2019-04-20T02:10:54.369Z,68.9113
2019-04-20T02:12:06.902Z,69.2363
2019-04-20T02:13:06.682Z,69.1157
2019-04-20T02:14:13.438Z,69.0059
2019-04-20T02:15:28.127Z,68.8609
2019-04-20T02:16:33.606Z,68.9387
2019-04-20T02:17:40.752Z,68.9738
2019-04-20T02:18:58.729Z,69.1356
2019-04-20T02:20:10.450Z,68.9876
2019-04-20T02:21:16.582Z,69.1951
2019-04-20T02:22:15.719Z,69.4911
2019-04-20T02:23:25.371Z,69.6162
2019-04-20T02:24:21.676Z,69.4377
2019-04-20T02:25:24.955Z,69.5064
2019-04-20T02:26:28.320Z,69.2668
2019-04-20T02:27:38.646Z,69.8070
2019-04-20T02:29:06.033Z,70.2983
2019-04-20T02:30:14.166Z,70.0404
2019-04-20T02:31:34.914Z,68.8014
2019-04-20T02:32:40.267Z,69.0394
2019-04-20T02:33:59.305Z,69.3767
2019-04-20T02:36:11.033Z,69.2775
2019-04-20T02:38:22.593Z,69.3858
2019-04-20T02:40:38.846Z,68.9937
2019-04-20T02:41:47.737Z,69.1066
2019-04-20T02:42:51.585Z,69.3187
2019-04-20T02:44:06.016Z,69.6437
2019-04-20T02:45:13.020Z,69.8589
2019-04-20T02:46:12.322Z,69.9504
2019-04-20T02:47:21.413Z,70.1503
2019-04-20T02:48:25.268Z,70.1747
2019-04-20T02:49:42.076Z,70.6996
2019-04-20T02:50:43.260Z,71.1070
2019-04-20T02:53:06.082Z,70.8156
2019-04-20T02:55:14.450Z,71.4565
2019-04-20T02:58:41.562Z,71.4824
2019-04-20T02:59:59.547Z,71.3329
2019-04-20T03:00:44.792Z,71.4656
2019-04-20T03:01:52.167Z,71.4687
2019-04-20T03:02:52.871Z,71.3558
2019-04-20T03:03:52.623Z,71.6625
2019-04-20T03:05:06.727Z,71.7540
2019-04-20T03:06:18.478Z,71.2779
2019-04-20T03:07:23.951Z,71.2596
2019-04-20T03:08:38.223Z,71.8547
2019-04-20T03:09:46.988Z,71.4473
2019-04-20T03:11:00.773Z,71.4931
2019-04-20T03:12:23.835Z,71.4046
2019-04-20T03:13:16.737Z,71.7357
2019-04-20T03:14:18.564Z,71.5618
2019-04-20T03:15:30.203Z,71.5801
2019-04-20T03:16:32.415Z,71.3817
2019-04-20T03:17:46.430Z,71.4778
2019-04-20T03:18:51.205Z,71.6442
2019-04-20T03:19:54.992Z,71.9310
2019-04-20T03:21:12.734Z,71.3863
2019-04-20T03:22:23.622Z,71.2093
2019-04-20T03:23:30.053Z,71.1849
2019-04-20T03:24:38.812Z,71.2764
2019-04-20T03:25:43.076Z,69.9413
2019-04-20T03:26:40.812Z,69.9870
2019-04-20T03:27:51.638Z,70.5119
2019-04-20T03:30:42.408Z,69.7978
2019-04-20T03:35:00.591Z,71.1177
2019-04-20T03:36:01.935Z,70.5409
2019-04-20T03:37:08.488Z,69.7566
2019-04-20T03:38:00.160Z,69.8177
2019-04-20T03:39:16.767Z,69.5277
2019-04-20T03:40:17.607Z,70.0008
2019-04-20T03:41:19.553Z,70.6996
2019-04-20T03:42:20.185Z,69.9352
2019-04-20T03:43:24.446Z,69.6559
2019-04-20T03:44:30.702Z,70.0374
2019-04-20T03:45:42.702Z,70.0603
2019-04-20T03:46:51.802Z,69.7017
2019-04-20T03:48:03.043Z,69.9046
2019-04-20T03:49:21.357Z,69.8711
2019-04-20T03:50:31.925Z,69.4881
2019-04-20T03:51:45.346Z,68.0720
2019-04-20T03:52:43.628Z,67.8798
2019-04-20T03:53:50.326Z,68.4672
2019-04-20T03:54:51.366Z,67.4403
2019-04-20T03:56:02.216Z,67.5822
2019-04-20T03:57:24.777Z,68.0858
2019-04-20T03:58:24.217Z,67.8630
2019-04-20T03:59:27.657Z,67.8767
2019-04-20T04:00:36.205Z,67.4372
2019-04-20T04:02:08.746Z,65.3315
2019-04-20T04:03:09.387Z,65.1240
2019-04-20T04:04:12.159Z,65.0294
2019-04-20T04:05:09.457Z,65.7252
2019-04-20T04:06:09.616Z,67.5319
2019-04-20T04:07:18.510Z,66.8513
2019-04-20T04:08:26.686Z,63.3570
2019-04-20T04:09:32.634Z,61.6403
2019-04-20T04:10:50.507Z,63.9933
2019-04-20T04:11:56.030Z,65.5879
2019-04-20T04:12:49.742Z,62.8626
2019-04-20T04:13:54.599Z,64.0085
2019-04-20T04:14:56.324Z,63.0594
2019-04-20T04:16:04.425Z,63.2746
2019-04-20T04:17:07.455Z,62.0340
2019-04-20T04:18:17.835Z,61.5320
2019-04-20T04:19:25.478Z,60.8621
2019-04-20T04:20:34.380Z,60.5692
2019-04-20T04:21:49.842Z,61.3535
2019-04-20T04:23:00.113Z,62.2324
2019-04-20T04:24:05.515Z,62.6032
2019-04-20T04:25:15.008Z,63.1342
2019-04-20T04:26:27.441Z,63.6515
2019-04-20T04:27:38.559Z,64.3793
2019-04-20T04:28:41.139Z,64.9775
2019-04-20T04:29:51.279Z,65.4582
2019-04-20T04:30:59.937Z,66.2364
2019-04-20T04:32:17.299Z,66.5522
2019-04-20T04:34:22.937Z,67.6432
2019-04-20T04:35:24.423Z,68.3024
2019-04-20T04:36:35.915Z,68.7358
2019-04-20T04:37:45.925Z,69.5750
2019-04-20T04:38:58.874Z,70.0908
2019-04-20T04:40:14.875Z,70.5592
2019-04-20T04:41:13.638Z,70.9895
2019-04-20T04:42:25.117Z,71.1940
2019-04-20T04:43:26.732Z,71.3558
2019-04-20T04:44:30.231Z,71.5145
2019-04-20T04:45:26.541Z,71.5755
2019-04-20T04:46:33.895Z,71.6258
2019-04-20T04:47:39.306Z,71.8685
2019-04-20T04:48:45.978Z,72.3812
2019-04-20T04:50:01.054Z,72.3262
2019-04-20T04:51:03.843Z,72.5719
2019-04-20T04:52:11.161Z,72.6558
2019-04-20T04:53:27.175Z,72.9534
2019-04-20T04:54:34.051Z,72.9397
2019-04-20T04:55:41.767Z,73.2555
2019-04-20T04:56:39.626Z,73.3135
2019-04-20T04:57:43.244Z,72.5902
2019-04-20T04:58:46.756Z,72.9152
2019-04-20T04:59:50.821Z,72.7748
2019-04-20T05:01:03.761Z,72.9061
2019-04-20T05:02:03.410Z,73.3364
2019-04-20T05:03:23.422Z,73.4112
2019-04-20T05:04:33.937Z,73.4707
2019-04-20T05:05:41.360Z,73.4752
2019-04-20T05:06:46.996Z,73.8003
2019-04-20T05:07:52.169Z,74.5220
2019-04-20T05:08:51.378Z,74.7524
2019-04-20T05:09:54.873Z,75.0607
2019-04-20T05:10:58.343Z,75.2606
2019-04-20T05:12:07.209Z,75.6451
2019-04-20T05:13:09.311Z,75.9609
2019-04-20T05:14:20.284Z,76.2448
2019-04-20T05:15:33.671Z,76.3836
2019-04-20T05:16:45.090Z,76.7163
2019-04-20T05:18:00.210Z,76.8002
2019-04-20T05:19:10.484Z,76.9680
2019-04-20T05:20:09.280Z,77.0932
2019-04-20T05:21:24.496Z,77.2198
2019-04-20T05:22:35.149Z,77.4594
2019-04-20T05:23:28.025Z,77.5036
2019-04-20T05:24:41.402Z,77.7645
2019-04-20T05:25:57.081Z,77.9522
2019-04-20T05:27:01.899Z,77.8027
2019-04-20T05:28:08.198Z,77.8973
2019-04-20T05:29:06.764Z,77.8622
2019-04-20T05:30:05.571Z,77.6959
2019-04-20T05:31:10.230Z,77.4853
2019-04-20T05:32:18.545Z,77.1023
2019-04-20T05:33:34.177Z,76.9787
2019-04-20T05:34:54.094Z,76.8048
2019-04-20T05:36:01.860Z,76.5011
2019-04-20T05:37:17.708Z,76.1395
2019-04-20T05:38:23.075Z,75.9075
2019-04-20T05:39:27.745Z,75.3750
2019-04-20T05:40:35.229Z,75.0637
2019-04-20T05:41:38.331Z,74.9813
2019-04-20T05:42:48.662Z,74.5357
2019-04-20T05:43:50.570Z,73.5760
2019-04-20T05:45:01.883Z,73.3547
2019-04-20T05:46:06.251Z,73.0129
2019-04-20T05:47:18.085Z,73.2006
2019-04-20T05:48:20.513Z,72.7886
2019-04-20T05:49:34.515Z,72.0134
2019-04-20T05:50:42.382Z,71.4137
2019-04-20T05:51:47.718Z,71.2184
2019-04-20T05:53:01.676Z,71.0353
2019-04-20T05:54:11.957Z,71.2825
2019-04-20T05:55:16.181Z,70.8476
2019-04-20T05:56:29.346Z,71.2352
2019-04-20T05:57:34.948Z,70.5959
2019-04-20T05:58:38.787Z,70.5776
2019-04-20T05:59:51.377Z,70.9651
2019-04-20T06:01:01.621Z,71.7617
2019-04-20T06:02:08.034Z,71.4870
2019-04-20T06:03:05.673Z,70.7683
2019-04-20T06:04:30.217Z,70.8095
2019-04-20T06:05:28.726Z,70.3243
2019-04-20T06:06:37.681Z,69.9092
2019-04-20T06:07:42.407Z,69.7932
2019-04-20T06:08:56.627Z,69.2683
2019-04-20T06:09:59.682Z,69.0791
2019-04-20T06:11:07.985Z,69.3080
2019-04-20T06:12:19.847Z,68.9021
2019-04-20T06:13:17.791Z,68.8457
2019-04-20T06:14:17.203Z,68.6915
2019-04-20T06:15:42.079Z,68.7678
2019-04-20T06:16:52.776Z,68.5817
2019-04-20T06:17:53.180Z,68.5176
2019-04-20T06:19:18.260Z,68.3604
2019-04-20T06:20:12.748Z,68.1361
2019-04-20T06:21:26.577Z,67.7607
2019-04-20T06:22:31.022Z,67.2953
2019-04-20T06:23:41.529Z,66.4240
2019-04-20T06:24:53.110Z,65.6245
2019-04-20T06:26:03.837Z,64.4007
2019-04-20T06:27:00.826Z,64.0040
2019-04-20T06:28:06.653Z,63.9399
2019-04-20T06:29:16.433Z,64.2145
2019-04-20T06:30:20.896Z,64.0955
2019-04-20T06:31:32.476Z,63.9307
2019-04-20T06:32:40.385Z,63.9673
2019-04-20T06:34:01.478Z,63.6973
2019-04-20T06:34:53.507Z,64.0803
2019-04-20T06:36:14.021Z,63.5050
2019-04-20T06:37:09.872Z,63.4394
2019-04-20T06:38:38.324Z,63.7186
2019-04-20T06:40:59.361Z,63.3173
2019-04-20T06:42:02.250Z,63.0869
2019-04-20T06:42:53.483Z,62.3926
2019-04-20T06:44:03.841Z,61.9303
2019-04-20T06:45:16.221Z,61.7777
2019-04-20T06:46:14.833Z,61.6465
2019-04-20T06:47:27.300Z,61.6419
2019-04-20T06:48:41.372Z,61.6861
2019-04-20T06:49:55.090Z,61.3748
2019-04-20T06:50:44.747Z,61.5824
2019-04-20T06:51:59.324Z,61.3581
2019-04-20T06:53:12.935Z,61.8204
2019-04-20T06:54:05.497Z,62.2095
2019-04-20T06:55:14.250Z,61.5854
2019-04-20T06:56:33.632Z,60.3281
2019-04-20T06:57:36.821Z,60.3723
2019-04-20T06:58:54.474Z,60.5753
2019-04-20T06:59:58.016Z,60.0519
2019-04-20T07:01:03.689Z,58.9776
2019-04-20T07:02:17.278Z,59.1180
2019-04-20T07:03:30.976Z,59.1821
2019-04-20T07:04:38.765Z,59.3576
2019-04-20T07:05:34.681Z,58.7213
2019-04-20T07:09:00.565Z,58.0285
2019-04-20T07:11:19.482Z,57.4075
2019-04-20T07:12:17.194Z,55.3368
2019-04-20T07:13:17.658Z,55.9518
2019-04-20T07:14:28.944Z,56.2936
2019-04-20T07:15:42.747Z,56.0479
2019-04-20T07:16:53.179Z,55.6039
2019-04-20T07:18:06.132Z,54.9538
2019-04-20T07:19:07.882Z,54.0475
2019-04-20T07:20:12.840Z,52.9427
2019-04-20T07:21:37.519Z,52.0272
2019-04-20T07:23:42.290Z,53.1182
2019-04-20T07:24:59.291Z,53.5378
2019-04-20T07:26:02.314Z,53.8186
2019-04-20T07:27:10.380Z,53.2143
2019-04-20T07:28:24.152Z,53.9498
2019-04-20T07:29:26.961Z,54.5739
2019-04-20T07:30:33.454Z,54.9172
2019-04-20T07:31:38.025Z,54.5861
2019-04-20T07:32:52.525Z,54.9981
2019-04-20T07:33:52.105Z,54.8760
2019-04-20T07:35:03.062Z,55.0072
2019-04-20T07:36:15.431Z,55.1858
2019-04-20T07:38:36.584Z,56.1929
2019-04-20T07:39:37.312Z,57.3327
2019-04-20T07:40:38.189Z,57.7722
2019-04-20T07:41:57.257Z,57.4701
2019-04-20T07:42:55.364Z,57.2702
2019-04-20T07:44:28.091Z,57.1145
2019-04-20T07:45:16.952Z,57.4884
2019-04-20T07:46:37.556Z,57.4472
2019-04-20T07:47:34.465Z,57.7218
2019-04-20T07:48:39.528Z,57.7356
2019-04-20T07:49:41.624Z,57.7920
2019-04-20T07:50:44.883Z,57.2274
2019-04-20T07:51:43.867Z,57.4166
2019-04-20T07:53:07.449Z,57.5357
2019-04-20T07:54:24.704Z,56.6049
2019-04-20T07:56:39.388Z,56.4584
2019-04-20T07:57:40.497Z,56.2982
2019-04-20T07:58:40.103Z,56.3958
2019-04-20T07:59:59.079Z,56.9207
2019-04-20T08:01:19.665Z,57.0123
2019-04-20T08:02:28.981Z,55.3094
2019-04-20T08:03:29.366Z,55.0988
2019-04-20T08:04:30.053Z,55.7549
2019-04-20T08:05:31.124Z,56.1395
2019-04-20T08:06:36.889Z,55.6435
2019-04-20T08:07:44.752Z,55.9594
2019-04-20T08:08:58.668Z,56.1379
2019-04-20T08:09:58.472Z,55.9136
2019-04-20T08:11:16.430Z,53.7682
2019-04-20T08:12:34.086Z,54.0276
2019-04-20T08:13:42.094Z,54.1329
2019-04-20T08:14:44.453Z,53.9376
2019-04-20T08:18:07.053Z,54.2473
2019-04-20T08:19:12.281Z,54.4121
2019-04-20T08:20:23.317Z,54.8974
2019-04-20T08:21:28.593Z,55.3201
2019-04-20T08:22:42.079Z,55.6039
2019-04-20T08:23:44.088Z,56.1379
2019-04-20T08:24:48.778Z,56.3668
2019-04-20T08:25:56.076Z,56.4904
2019-04-20T08:26:55.885Z,56.2799
2019-04-20T08:27:59.108Z,56.5545
2019-04-20T08:29:09.186Z,55.7031
2019-04-20T08:30:32.307Z,55.8587
2019-04-20T08:31:33.494Z,55.1949
2019-04-20T08:32:45.220Z,54.8379
2019-04-20T08:34:07.778Z,54.8898
2019-04-20T08:35:10.473Z,54.2535
2019-04-20T08:36:10.803Z,54.6883
2019-04-20T08:37:17.467Z,53.6751
2019-04-20T08:39:46.365Z,53.6538
2019-04-20T08:40:45.807Z,52.1477
2019-04-20T08:41:58.893Z,52.2896
2019-04-20T08:43:11.204Z,52.3888
2019-04-20T08:44:21.429Z,50.7012
2019-04-20T08:45:16.767Z,50.9850
2019-04-20T08:46:20.615Z,50.9758
2019-04-20T08:47:38.195Z,50.8598
2019-04-20T08:48:43.571Z,50.9972
2019-04-20T08:49:49.179Z,50.8751
2019-04-20T08:50:58.439Z,50.8019
2019-04-20T08:52:12.840Z,51.3237
2019-04-20T08:54:16.456Z,51.1849
2019-04-20T08:55:23.390Z,51.1025
2019-04-20T08:56:24.608Z,51.2139
2019-04-20T08:57:22.612Z,51.3542
2019-04-20T08:58:25.296Z,50.5943
2019-04-20T08:59:27.318Z,50.8278
2019-04-20T09:00:38.328Z,50.8339
2019-04-20T09:01:39.438Z,50.5394
2019-04-20T09:02:48.906Z,50.3487
2019-04-20T09:04:03.523Z,49.4316
2019-04-20T09:05:04.919Z,49.6483
2019-04-20T09:06:24.959Z,49.5979
2019-04-20T09:07:22.580Z,49.4148
2019-04-20T09:08:29.848Z,49.3996
2019-04-20T09:09:55.813Z,48.7007
2019-04-20T09:11:00.030Z,47.7241
2019-04-20T09:12:07.584Z,47.0436
2019-04-20T09:13:08.336Z,46.6850
2019-04-20T09:14:05.909Z,46.4790
2019-04-20T09:15:10.572Z,46.1555
2019-04-20T09:16:13.329Z,45.4276
2019-04-20T09:17:24.338Z,45.1698
2019-04-20T09:18:31.292Z,45.1759
2019-04-20T09:19:42.760Z,45.4093
2019-04-20T09:20:50.711Z,45.2384
2019-04-20T09:21:55.147Z,44.8829
2019-04-20T09:23:14.573Z,44.4831
2019-04-20T09:24:32.982Z,44.2496
2019-04-20T09:25:48.393Z,44.3519
2019-04-20T09:26:42.292Z,44.5212
2019-04-20T09:27:38.411Z,43.3936
2019-04-20T09:28:48.000Z,43.2670
2019-04-20T09:30:03.333Z,43.4852
2019-04-20T09:31:11.944Z,43.6011
2019-04-20T09:32:16.914Z,43.8117
2019-04-20T09:33:28.896Z,42.7253
2019-04-20T09:34:41.886Z,42.5849
2019-04-20T09:35:42.923Z,41.9791
2019-04-20T09:36:48.399Z,41.5808
2019-04-20T09:38:01.808Z,42.5834
2019-04-20T09:39:01.175Z,42.9648
2019-04-20T09:40:15.867Z,43.6332
2019-04-20T09:41:35.346Z,43.6866
2019-04-20T09:42:14.312Z,43.9078
2019-04-20T09:43:18.547Z,42.6856
2019-04-20T09:44:25.635Z,41.2741
2019-04-20T09:45:37.354Z,40.3098
2019-04-20T09:46:44.390Z,41.3031
2019-04-20T09:47:51.187Z,40.8347
2019-04-20T09:48:59.012Z,41.0605
2019-04-20T09:50:20.946Z,41.1383
2019-04-20T09:51:30.204Z,40.8026
2019-04-20T09:52:32.201Z,40.4471
2019-04-20T09:53:39.389Z,40.6210
2019-04-20T09:54:45.969Z,40.5432
2019-04-20T09:55:59.490Z,40.2304
2019-04-20T09:57:09.117Z,40.0336
2019-04-20T09:58:12.311Z,40.2670
2019-04-20T09:59:22.038Z,40.8118
2019-04-20T10:00:28.906Z,41.2894
2019-04-20T10:01:31.235Z,38.7945
2019-04-20T10:02:34.472Z,39.2432
2019-04-20T10:03:38.818Z,39.9390
2019-04-20T10:04:42.289Z,39.6414
2019-04-20T10:05:45.483Z,39.9191
2019-04-20T10:06:49.613Z,40.1709
2019-04-20T10:07:56.912Z,40.4059
2019-04-20T10:09:03.477Z,40.8774
2019-04-20T10:10:17.860Z,41.1566
2019-04-20T10:11:17.264Z,40.8988
2019-04-20T10:12:21.727Z,39.1104
2019-04-20T10:13:25.312Z,38.1567
2019-04-20T10:14:28.882Z,37.9385
2019-04-20T10:15:32.990Z,37.0977
2019-04-20T10:16:37.739Z,36.7407
2019-04-20T10:17:41.481Z,35.8267
2019-04-20T10:18:48.113Z,35.8312
2019-04-20T10:19:53.431Z,35.5840
2019-04-20T10:20:56.280Z,34.5342
2019-04-20T10:22:02.415Z,35.4604
2019-04-20T10:23:06.697Z,36.0143
2019-04-20T10:24:10.528Z,35.1751
2019-04-20T10:25:13.317Z,34.6548
2019-04-20T10:26:16.464Z,34.0261
2019-04-20T10:27:20.570Z,34.9966
2019-04-20T10:28:25.530Z,36.2432
2019-04-20T10:29:28.370Z,36.0327
2019-04-20T10:30:32.466Z,35.5291
2019-04-20T10:31:42.644Z,36.5087
2019-04-20T10:32:47.235Z,37.6593
2019-04-20T10:33:51.445Z,38.2666
2019-04-20T10:34:54.876Z,38.4909
2019-04-20T10:35:59.442Z,38.0880
2019-04-20T10:37:03.749Z,37.5448
2019-04-20T10:38:07.528Z,38.1811
2019-04-20T10:39:10.877Z,36.2524
2019-04-20T10:40:27.973Z,34.8653
2019-04-20T10:41:36.135Z,34.6578
2019-04-20T10:42:30.267Z,34.5022
2019-04-20T10:43:33.354Z,35.7198
2019-04-20T10:44:36.921Z,35.9762
2019-04-20T10:45:41.224Z,36.1059
2019-04-20T10:46:44.929Z,36.7224
2019-04-20T10:47:48.278Z,34.3008
2019-04-20T10:48:53.304Z,34.5663
2019-04-20T10:49:58.887Z,34.1863
2019-04-20T10:51:03.131Z,32.0272
2019-04-20T10:52:07.485Z,31.3405
2019-04-20T10:53:10.343Z,31.2856
2019-04-20T10:54:14.223Z,32.0500
2019-04-20T10:55:18.599Z,34.0185
2019-04-20T10:56:21.443Z,34.0902
2019-04-20T10:57:25.670Z,33.9178
2019-04-20T10:58:29.587Z,34.0276
2019-04-20T10:59:32.389Z,34.4350
2019-04-20T11:00:35.589Z,34.0536
2019-04-20T11:01:38.317Z,34.2657
2019-04-20T11:02:43.940Z,34.5068
2019-04-20T11:03:48.275Z,33.4874
2019-04-20T11:04:52.538Z,34.6181
2019-04-20T11:05:56.415Z,34.4060
2019-04-20T11:07:00.722Z,34.7189
2019-04-20T11:08:04.393Z,33.2433
2019-04-20T11:09:08.745Z,33.5103
2019-04-20T11:10:19.792Z,33.9025
2019-04-20T11:11:25.218Z,33.5775
2019-04-20T11:12:28.469Z,32.8145
2019-04-20T11:13:31.342Z,33.5882
2019-04-20T11:14:37.212Z,33.8308
2019-04-20T11:15:44.427Z,34.1817
2019-04-20T11:16:48.462Z,34.3282
2019-04-20T11:17:51.435Z,33.8750
2019-04-20T11:18:55.497Z,33.8979
2019-04-20T11:19:59.188Z,33.2494
2019-04-20T11:21:03.525Z,33.9223
2019-04-20T11:22:06.316Z,32.1263
2019-04-20T11:23:10.629Z,31.3726
2019-04-20T11:24:14.371Z,31.9615
2019-04-20T11:25:17.345Z,33.6751
2019-04-20T11:26:20.344Z,33.7575
2019-04-20T11:27:23.304Z,33.9864
2019-04-20T11:28:26.326Z,33.4493
2019-04-20T11:29:29.290Z,34.7143
2019-04-20T11:30:32.342Z,33.7072
2019-04-20T11:31:39.513Z,33.3715
2019-04-20T11:32:44.331Z,33.4691
2019-04-20T11:33:48.025Z,31.9539
2019-04-20T11:34:51.325Z,32.1462
2019-04-20T11:35:54.988Z,32.5902
2019-04-20T11:36:59.233Z,33.3547
2019-04-20T11:38:02.946Z,33.0846
2019-04-20T11:39:07.127Z,33.1624
2019-04-20T11:40:10.918Z,32.9961
2019-04-20T11:41:22.753Z,32.4926
2019-04-20T11:42:23.544Z,31.8395
2019-04-20T11:43:26.285Z,32.2042
2019-04-20T11:44:31.457Z,32.9091
2019-04-20T11:45:38.422Z,32.4208
2019-04-20T11:46:42.803Z,31.4046
2019-04-20T11:47:47.400Z,32.2316
2019-04-20T11:48:51.707Z,32.6955
2019-04-20T11:49:55.461Z,32.7260
2019-04-20T11:50:58.353Z,32.8649
2019-04-20T11:52:01.521Z,32.4285
2019-04-20T11:53:05.265Z,31.6426
2019-04-20T11:54:08.377Z,31.1055
2019-04-20T11:55:12.519Z,32.0714
2019-04-20T11:56:23.806Z,30.8598
2019-04-20T11:57:23.313Z,29.4942
2019-04-20T11:58:26.306Z,29.9474
2019-04-20T11:59:30.346Z,29.6956
2019-04-20T12:00:34.290Z,29.0730
2019-04-20T12:01:47.651Z,29.6330
2019-04-20T12:02:53.560Z,29.8894
2019-04-20T12:04:04.110Z,30.1228
2019-04-20T12:05:17.357Z,30.0862
2019-04-20T12:06:13.306Z,30.4662
2019-04-20T12:07:19.223Z,30.4158
2019-04-20T12:08:22.941Z,30.5470
2019-04-20T12:09:26.342Z,30.6905
2019-04-20T12:10:30.049Z,31.0140
2019-04-20T12:11:47.533Z,30.2785
2019-04-20T12:12:47.293Z,30.5669
2019-04-20T12:13:50.307Z,31.1833
2019-04-20T12:14:54.671Z,31.3985
2019-04-20T12:15:59.360Z,30.3731
2019-04-20T12:17:03.672Z,29.9428
2019-04-20T12:18:07.583Z,29.6178
2019-04-20T12:19:10.553Z,28.7724
2019-04-20T12:20:14.533Z,28.8685
2019-04-20T12:21:17.286Z,30.0908
2019-04-20T12:22:21.506Z,30.7530
2019-04-20T12:23:24.528Z,30.5898
2019-04-20T12:24:27.310Z,30.5669
2019-04-20T12:25:34.173Z,31.1757
2019-04-20T12:26:38.681Z,31.1620
2019-04-20T12:27:48.806Z,31.1620
2019-04-20T12:28:49.686Z,30.9087
2019-04-20T12:29:52.277Z,31.5282
2019-04-20T12:31:03.053Z,31.1559
2019-04-20T12:32:05.431Z,31.1421
2019-04-20T12:33:11.501Z,31.8715
2019-04-20T12:34:14.317Z,30.5013
2019-04-20T12:35:18.163Z,30.9087
2019-04-20T12:36:21.319Z,31.7464
2019-04-20T12:37:25.068Z,31.5648
2019-04-20T12:38:28.374Z,31.0796
2019-04-20T12:39:31.308Z,31.7021
2019-04-20T12:40:35.417Z,30.6981
2019-04-20T12:41:45.345Z,30.7271
2019-04-20T12:42:46.635Z,31.5633
2019-04-20T12:43:49.815Z,32.3095
2019-04-20T12:44:53.427Z,32.1447
2019-04-20T12:45:55.853Z,31.9249
2019-04-20T12:46:59.642Z,31.4260
2019-04-20T12:48:03.773Z,30.9911
2019-04-20T12:49:07.671Z,32.1736
2019-04-20T12:50:11.872Z,31.8059
2019-04-20T12:51:15.583Z,32.7276
2019-04-20T12:52:18.583Z,32.9320
2019-04-20T12:53:22.344Z,32.6223
2019-04-20T12:54:25.326Z,32.4834
2019-04-20T12:55:28.401Z,32.5429
2019-04-20T12:56:32.663Z,32.0256
2019-04-20T12:57:36.552Z,32.3049
2019-04-20T12:58:42.968Z,31.7464
2019-04-20T12:59:48.712Z,31.6640
2019-04-20T13:00:52.429Z,31.2886
2019-04-20T13:01:55.490Z,31.2993
2019-04-20T13:02:59.150Z,31.4900
2019-04-20T13:04:04.499Z,31.7327
2019-04-20T13:05:09.427Z,31.7205
2019-04-20T13:06:12.276Z,32.4071
2019-04-20T13:07:15.627Z,33.1243
2019-04-20T13:08:29.595Z,32.8313
2019-04-20T13:09:26.397Z,33.0419
2019-04-20T13:10:29.612Z,32.8954
2019-04-20T13:11:44.353Z,32.7535
2019-04-20T13:12:40.679Z,32.2179
2019-04-20T13:13:44.339Z,31.8761
2019-04-20T13:14:48.443Z,32.7367
2019-04-20T13:15:52.149Z,31.9127
2019-04-20T13:16:56.825Z,31.7205
2019-04-20T13:18:01.245Z,31.9310
2019-04-20T13:19:05.608Z,32.7642
2019-04-20T13:20:08.307Z,31.3268
2019-04-20T13:21:11.349Z,32.0363
2019-04-20T13:22:14.839Z,31.4824
2019-04-20T13:23:20.144Z,31.6747
2019-04-20T13:24:23.324Z,31.7235
2019-04-20T13:25:26.380Z,32.3384
2019-04-20T13:26:29.329Z,32.6574
2019-04-20T13:27:32.304Z,33.1899
2019-04-20T13:28:35.310Z,31.6274
2019-04-20T13:29:38.395Z,31.6960
2019-04-20T13:30:41.893Z,31.3222
2019-04-20T13:31:45.272Z,31.9265
2019-04-20T13:32:48.332Z,31.5450
2019-04-20T13:33:51.641Z,32.0043
2019-04-20T13:34:54.366Z,31.8669
2019-04-20T13:35:58.473Z,31.8151
2019-04-20T13:37:02.256Z,31.3863
2019-04-20T13:38:05.301Z,31.0933
2019-04-20T13:39:08.324Z,30.7866
2019-04-20T13:40:11.335Z,31.0063
2019-04-20T13:41:15.668Z,30.6447
2019-04-20T13:42:24.556Z,31.0750
2019-04-20T13:43:27.961Z,30.9148
2019-04-20T13:44:32.399Z,31.0246
2019-04-20T13:45:35.282Z,31.0002
2019-04-20T13:46:38.887Z,30.5882
2019-04-20T13:47:43.208Z,30.2602
2019-04-20T13:48:46.842Z,30.2144
2019-04-20T13:49:51.348Z,30.6432
2019-04-20T13:50:56.074Z,30.5852
2019-04-20T13:51:59.321Z,30.9056